createdAt,value
2024-04-05T00:00:18.757Z,16.07
2024-04-05T00:03:06.679Z,16.04
2024-04-05T00:05:35.799Z,16.03
2024-04-05T00:08:04.255Z,16.01
2024-04-05T00:10:32.132Z,15.99
2024-04-05T00:13:01.937Z,15.97
2024-04-05T00:15:30.210Z,15.95
2024-04-05T00:17:58.103Z,15.93
2024-04-05T00:20:26.051Z,15.91
2024-04-05T00:22:53.911Z,15.89
2024-04-05T00:25:21.889Z,15.89
2024-04-05T00:27:51.893Z,15.90
2024-04-05T00:30:21.860Z,15.90
2024-04-05T00:32:49.679Z,15.91
2024-04-05T00:35:17.652Z,15.92
2024-04-05T00:37:45.931Z,15.94
2024-04-05T00:40:14.503Z,15.97
2024-04-05T00:42:42.368Z,15.98
2024-04-05T00:45:10.877Z,15.98
2024-04-05T00:47:39.072Z,15.99
2024-04-05T00:50:08.029Z,16.01
2024-04-05T00:52:36.230Z,16.02
2024-04-05T00:55:04.471Z,16.02
2024-04-05T00:57:32.543Z,16.03
2024-04-05T01:00:00.410Z,16.00
2024-04-05T01:02:28.681Z,15.99
2024-04-05T01:04:56.775Z,15.98
2024-04-05T01:07:24.619Z,15.97
2024-04-05T01:09:52.596Z,15.97
2024-04-05T01:12:20.666Z,15.98
2024-04-05T01:14:48.424Z,15.99
2024-04-05T01:17:16.320Z,16.00
2024-04-05T01:19:44.394Z,16.00
2024-04-05T01:22:13.667Z,16.00
2024-04-05T01:24:41.537Z,16.00
2024-04-05T01:27:09.292Z,16.01
2024-04-05T01:29:37.083Z,16.02
2024-04-05T01:32:05.029Z,16.04
2024-04-05T01:34:32.900Z,16.05
2024-04-05T01:37:01.591Z,16.06
2024-04-05T01:39:30.471Z,16.07
2024-04-05T01:41:58.366Z,16.09
2024-04-05T01:44:26.197Z,16.10
2024-04-05T01:46:54.067Z,16.09
2024-04-05T01:49:23.262Z,16.10
2024-04-05T01:51:52.358Z,16.09
2024-04-05T01:54:20.222Z,16.09
2024-04-05T01:56:47.892Z,16.07
2024-04-05T01:59:16.364Z,16.01
2024-04-05T02:01:44.185Z,15.99
2024-04-05T02:04:11.999Z,15.99
2024-04-05T02:06:40.427Z,15.99
2024-04-05T02:09:09.797Z,15.98
2024-04-05T02:11:37.645Z,16.00
2024-04-05T02:14:05.714Z,15.99
2024-04-05T02:16:33.785Z,15.98
2024-04-05T02:19:01.705Z,15.99
2024-04-05T02:21:29.538Z,15.98
2024-04-05T02:23:57.386Z,15.96
2024-04-05T02:26:25.252Z,15.93
2024-04-05T02:28:53.129Z,15.93
2024-04-05T02:31:20.882Z,15.92
2024-04-05T02:33:48.667Z,15.91
2024-04-05T02:36:16.621Z,15.89
2024-04-05T02:38:46.331Z,15.86
2024-04-05T02:41:14.094Z,15.84
2024-04-05T02:43:42.185Z,15.83
2024-04-05T02:46:10.050Z,15.84
2024-04-05T02:48:38.305Z,15.85
2024-04-05T02:51:07.392Z,15.84
2024-04-05T02:53:35.273Z,15.83
2024-04-05T02:56:03.243Z,15.82
2024-04-05T02:58:31.230Z,15.80
2024-04-05T03:00:59.066Z,15.80
2024-04-05T03:03:26.831Z,15.80
2024-04-05T03:05:54.798Z,15.79
2024-04-05T03:08:23.791Z,15.79
2024-04-05T03:10:51.608Z,15.78
2024-04-05T03:13:20.038Z,15.78
2024-04-05T03:15:48.652Z,15.76
2024-04-05T03:18:16.503Z,15.74
2024-04-05T03:20:44.453Z,15.72
2024-04-05T03:23:12.321Z,15.72
2024-04-05T03:25:40.220Z,15.70
2024-04-05T03:28:08.162Z,15.70
2024-04-05T03:30:37.379Z,15.70
2024-04-05T03:33:05.423Z,15.68
2024-04-05T03:35:37.365Z,15.67
2024-04-05T03:38:05.700Z,15.63
2024-04-05T03:40:33.526Z,15.59
2024-04-05T03:43:01.396Z,15.55
2024-04-05T03:45:29.277Z,15.51
2024-04-05T03:47:57.332Z,15.49
2024-04-05T03:50:25.203Z,15.46
2024-04-05T03:52:53.272Z,15.44
2024-04-05T03:55:21.621Z,15.43
2024-04-05T03:57:53.858Z,15.42
2024-04-05T04:00:24.667Z,15.41
2024-04-05T04:02:53.132Z,15.39
2024-04-05T04:05:21.140Z,15.37
2024-04-05T04:07:48.978Z,15.34
2024-04-05T04:10:17.036Z,15.32
2024-04-05T04:12:45.644Z,15.30
2024-04-05T04:15:17.008Z,15.27
2024-04-05T04:17:44.835Z,15.25
2024-04-05T04:20:13.427Z,15.21
2024-04-05T04:22:41.287Z,15.19
2024-04-05T04:25:09.357Z,15.16
2024-04-05T04:27:37.540Z,15.13
2024-04-05T04:30:08.101Z,15.09
2024-04-05T04:32:35.951Z,15.03
2024-04-05T04:35:04.719Z,14.99
2024-04-05T04:37:32.886Z,14.93
2024-04-05T04:40:00.820Z,14.88
2024-04-05T04:42:29.234Z,14.85
2024-04-05T04:44:57.922Z,14.81
2024-04-05T04:47:30.215Z,14.80
2024-04-05T04:50:01.674Z,14.77
2024-04-05T04:52:29.910Z,14.75
2024-04-05T04:54:58.396Z,14.74
2024-04-05T04:57:26.362Z,14.72
2024-04-05T04:59:54.436Z,14.71
2024-04-05T05:02:22.199Z,14.68
2024-04-05T05:04:50.042Z,14.66
2024-04-05T05:07:19.480Z,14.63
2024-04-05T05:09:47.432Z,14.63
2024-04-05T05:12:15.332Z,14.60
2024-04-05T05:14:43.187Z,14.61
2024-04-05T05:17:11.034Z,14.60
2024-04-05T05:19:38.749Z,14.59
2024-04-05T05:22:06.382Z,14.58
2024-04-05T05:24:34.246Z,14.59
2024-04-05T05:27:02.090Z,14.60
2024-04-05T05:29:29.788Z,14.64
2024-04-05T05:31:57.531Z,14.68
2024-04-05T05:34:25.286Z,14.69
2024-04-05T05:36:53.172Z,14.71
2024-04-05T05:39:21.940Z,14.74
2024-04-05T05:41:49.700Z,14.76
2024-04-05T05:44:17.572Z,14.77
2024-04-05T05:46:45.871Z,14.78
2024-04-05T05:49:14.354Z,14.80
2024-04-05T05:51:42.186Z,14.81
2024-04-05T05:54:10.379Z,14.81
2024-04-05T05:56:38.642Z,14.82
2024-04-05T05:59:06.811Z,14.85
2024-04-05T06:01:34.628Z,14.82
2024-04-05T06:04:04.698Z,14.85
2024-04-05T06:06:32.562Z,14.87
2024-04-05T06:09:00.323Z,14.88
2024-04-05T06:11:28.187Z,14.88
2024-04-05T06:13:55.974Z,14.90
2024-04-05T06:16:23.925Z,14.92
2024-04-05T06:18:52.505Z,14.98
2024-04-05T06:21:20.379Z,15.05
2024-04-05T06:23:48.238Z,15.13
2024-04-05T06:26:16.024Z,15.19
2024-04-05T06:28:43.771Z,15.26
2024-04-05T06:31:12.048Z,15.33
2024-04-05T06:33:40.420Z,15.41
2024-04-05T06:36:10.314Z,15.49
2024-04-05T06:38:38.353Z,15.60
2024-04-05T06:41:06.172Z,15.76
2024-04-05T06:43:34.074Z,15.97
2024-04-05T06:46:06.520Z,16.20
2024-04-05T06:48:35.332Z,16.42
2024-04-05T06:51:12.318Z,16.61
2024-04-05T06:53:40.177Z,16.81
2024-04-05T06:56:08.331Z,16.96
2024-04-05T06:58:36.180Z,17.06
2024-04-05T07:01:04.867Z,17.18
2024-04-05T07:03:32.736Z,17.32
2024-04-05T07:06:05.050Z,17.50
2024-04-05T07:08:33.281Z,17.75
2024-04-05T07:11:01.874Z,17.93
2024-04-05T07:13:32.511Z,18.06
2024-04-05T07:16:01.702Z,18.19
2024-04-05T07:18:29.596Z,18.08
2024-04-05T07:20:57.733Z,17.49
2024-04-05T07:23:25.804Z,17.01
2024-04-05T07:25:54.539Z,16.78
2024-04-05T07:28:23.487Z,17.14
2024-04-05T07:30:53.685Z,17.68
2024-04-05T07:33:23.114Z,18.15
2024-04-05T07:35:53.635Z,18.49
2024-04-05T07:38:21.502Z,18.60
2024-04-05T07:40:50.018Z,18.23
2024-04-05T07:43:17.955Z,17.78
2024-04-05T07:45:45.733Z,17.43
2024-04-05T07:48:17.063Z,17.15
2024-04-05T07:50:44.797Z,16.90
2024-04-05T07:53:13.409Z,16.73
2024-04-05T07:55:41.275Z,16.74
2024-04-05T07:58:09.058Z,17.24
2024-04-05T08:00:37.732Z,17.78
2024-04-05T08:03:08.052Z,18.29
2024-04-05T08:05:37.043Z,18.64
2024-04-05T08:08:05.634Z,18.55
2024-04-05T08:10:33.728Z,18.37
2024-04-05T08:13:01.688Z,18.25
2024-04-05T08:15:32.911Z,18.19
2024-04-05T08:18:00.795Z,18.13
2024-04-05T08:20:28.849Z,18.13
2024-04-05T08:22:57.274Z,18.19
2024-04-05T08:25:25.145Z,18.21
2024-04-05T08:27:53.680Z,18.20
2024-04-05T08:30:22.587Z,18.17
2024-04-05T08:32:50.433Z,18.16
2024-04-05T08:35:18.404Z,18.18
2024-04-05T08:37:46.167Z,18.21
2024-04-05T08:40:14.548Z,18.22
2024-04-05T08:42:46.647Z,18.28
2024-04-05T08:45:15.803Z,18.38
2024-04-05T08:47:49.765Z,18.50
2024-04-05T08:50:19.139Z,18.63
2024-04-05T08:52:47.008Z,18.77
2024-04-05T08:55:14.855Z,18.87
2024-04-05T08:57:44.944Z,18.92
2024-04-05T09:00:18.714Z,19.02
2024-04-05T09:02:47.973Z,19.11
2024-04-05T09:05:18.734Z,19.13
2024-04-05T09:07:48.168Z,19.10
2024-04-05T09:10:18.430Z,19.12
2024-04-05T09:12:53.929Z,19.16
2024-04-05T09:15:24.281Z,19.22
2024-04-05T09:17:52.485Z,19.22
2024-04-05T09:20:30.476Z,19.22
2024-04-05T09:23:03.040Z,19.23
2024-04-05T09:25:31.744Z,19.22
2024-04-05T09:28:09.430Z,19.13
2024-04-05T09:30:38.066Z,19.07
2024-04-05T09:33:06.819Z,19.03
2024-04-05T09:35:39.490Z,18.99
2024-04-05T09:38:08.113Z,18.99
2024-04-05T09:40:36.965Z,19.00
2024-04-05T09:43:08.633Z,18.97
2024-04-05T09:45:37.542Z,18.94
2024-04-05T09:48:07.070Z,18.93
2024-04-05T09:50:38.431Z,18.90
2024-04-05T09:53:06.454Z,18.90
2024-04-05T09:55:39.733Z,18.95
2024-04-05T09:58:07.802Z,19.06
2024-04-05T10:00:39.049Z,19.15
2024-04-05T10:03:07.532Z,19.16
2024-04-05T10:05:35.955Z,19.20
2024-04-05T10:08:17.851Z,19.30
2024-04-05T10:10:46.184Z,19.40
2024-04-05T10:13:18.349Z,19.50
2024-04-05T10:16:03.206Z,19.58
2024-04-05T10:18:33.675Z,19.60
2024-04-05T10:21:09.487Z,19.59
2024-04-05T10:23:39.016Z,19.63
2024-04-05T10:26:17.110Z,19.60
2024-04-05T10:28:45.375Z,19.49
2024-04-05T10:31:14.071Z,19.33
2024-04-05T10:33:46.648Z,19.23
2024-04-05T10:36:15.831Z,19.20
2024-04-05T10:38:50.456Z,19.28
2024-04-05T10:41:20.056Z,19.42
2024-04-05T10:43:48.754Z,19.52
2024-04-05T10:46:17.893Z,19.60
2024-04-05T10:48:46.126Z,19.72
2024-04-05T10:58:47.762Z,20.17
2024-04-05T11:01:16.027Z,20.07
2024-04-05T11:03:43.970Z,19.98
2024-04-05T11:06:11.938Z,19.88
2024-04-05T11:08:40.324Z,19.76
2024-04-05T11:11:12.410Z,19.65
2024-04-05T11:13:41.730Z,19.63
2024-04-05T11:16:11.770Z,19.72
2024-04-05T11:18:39.785Z,19.86
2024-04-05T11:21:15.331Z,19.91
2024-04-05T11:23:55.222Z,19.95
2024-04-05T11:26:33.899Z,19.97
2024-04-05T11:29:02.787Z,19.97
2024-04-05T11:31:32.400Z,19.94
2024-04-05T11:34:01.386Z,19.87
2024-04-05T11:36:29.237Z,19.75
2024-04-05T11:38:57.468Z,19.59
2024-04-05T11:41:28.046Z,19.43
2024-04-05T11:43:56.883Z,19.23
2024-04-05T11:46:26.256Z,19.04
2024-04-05T11:48:55.206Z,18.88
2024-04-05T11:51:24.535Z,18.81
2024-04-05T11:53:52.332Z,18.92
2024-04-05T11:56:20.160Z,19.10
2024-04-05T11:58:48.040Z,19.22
2024-04-05T12:01:16.234Z,19.34
2024-04-05T12:03:44.066Z,19.47
2024-04-05T12:06:13.775Z,19.63
2024-04-05T12:08:41.550Z,19.78
2024-04-05T12:11:09.403Z,19.86
2024-04-05T12:13:38.704Z,19.89
2024-04-05T12:16:10.157Z,19.90
2024-04-05T12:18:39.584Z,19.86
2024-04-05T12:21:07.526Z,19.79
2024-04-05T12:23:36.934Z,19.71
2024-04-05T12:26:09.550Z,19.62
2024-04-05T12:28:39.445Z,19.55
2024-04-05T12:31:08.415Z,19.51
2024-04-05T12:33:36.486Z,19.51
2024-04-05T12:36:08.096Z,19.53
2024-04-05T12:38:42.722Z,19.55
2024-04-05T12:41:12.109Z,19.53
2024-04-05T12:43:40.775Z,19.51
2024-04-05T12:46:09.852Z,19.47
2024-04-05T12:48:37.713Z,19.46
2024-04-05T12:51:08.195Z,19.47
2024-04-05T12:53:35.972Z,19.54
2024-04-05T12:56:08.438Z,19.66
2024-04-05T12:58:47.124Z,19.77
2024-04-05T13:01:18.059Z,19.82
2024-04-05T13:03:46.220Z,19.80
2024-04-05T13:06:17.230Z,19.73
2024-04-05T13:08:45.431Z,19.61
2024-04-05T13:11:15.552Z,19.47
2024-04-05T13:13:45.563Z,19.31
2024-04-05T13:16:13.630Z,19.18
2024-04-05T13:18:44.035Z,19.07
2024-04-05T13:21:14.118Z,18.97
2024-04-05T13:23:50.342Z,18.89
2024-04-05T13:26:23.135Z,18.84
2024-04-05T13:28:53.691Z,18.90
2024-04-05T13:31:23.780Z,19.01
2024-04-05T13:33:51.639Z,19.09
2024-04-05T13:36:21.997Z,19.15
2024-04-05T13:38:52.476Z,19.18
2024-04-05T13:41:20.472Z,19.16
2024-04-05T13:43:49.561Z,19.15
2024-04-05T13:46:17.317Z,19.14
2024-04-05T13:48:50.229Z,19.07
2024-04-05T13:51:18.985Z,18.98
2024-04-05T13:53:46.866Z,18.96
2024-04-05T13:56:16.214Z,19.02
2024-04-05T13:58:45.190Z,19.10
2024-04-05T14:01:13.223Z,19.22
2024-04-05T14:03:42.719Z,19.39
2024-04-05T14:06:11.519Z,19.55
2024-04-05T14:08:42.383Z,19.68
2024-04-05T14:11:13.908Z,19.76
2024-04-05T14:13:42.790Z,19.77
2024-04-05T14:16:10.868Z,19.71
2024-04-05T14:18:38.634Z,19.61
2024-04-05T14:21:12.067Z,19.53
2024-04-05T14:23:39.988Z,19.42
2024-04-05T14:26:09.758Z,19.40
2024-04-05T14:28:37.687Z,19.40
2024-04-05T14:31:14.963Z,19.41
2024-04-05T14:33:54.843Z,19.37
2024-04-05T14:36:28.728Z,19.33
2024-04-05T14:38:56.823Z,19.29
2024-04-05T14:41:25.162Z,19.23
2024-04-05T14:43:53.129Z,19.13
2024-04-05T14:46:21.092Z,19.05
2024-04-05T14:48:48.985Z,19.03
2024-04-05T14:51:18.190Z,19.04
2024-04-05T14:53:46.143Z,19.06
2024-04-05T14:56:14.120Z,19.04
2024-04-05T14:58:42.385Z,19.01
2024-04-05T15:01:11.715Z,19.04
2024-04-05T15:03:39.539Z,19.10
2024-04-05T15:06:07.621Z,19.15
2024-04-05T15:08:38.991Z,19.21
2024-04-05T15:11:08.257Z,19.28
2024-04-05T15:13:37.567Z,19.26
2024-04-05T15:16:06.965Z,19.23
2024-04-05T15:18:34.930Z,19.18
2024-04-05T15:21:05.508Z,19.15
2024-04-05T15:23:33.334Z,19.07
2024-04-05T15:26:01.751Z,18.99
2024-04-05T15:28:31.899Z,18.94
2024-04-05T15:31:03.990Z,18.82
2024-04-05T15:33:32.367Z,18.70
2024-04-05T15:36:05.836Z,18.61
2024-04-05T15:38:35.629Z,18.54
2024-04-05T15:41:10.932Z,18.48
2024-04-05T15:43:44.304Z,18.45
2024-04-05T15:46:15.399Z,18.43
2024-04-05T15:48:44.490Z,18.39
2024-04-05T15:51:13.880Z,18.34
2024-04-05T15:53:49.326Z,18.31
2024-04-05T15:56:17.276Z,18.25
2024-04-05T15:58:47.074Z,18.18
2024-04-05T16:01:16.458Z,18.11
2024-04-05T16:03:44.464Z,18.05
2024-04-05T16:06:12.597Z,17.97
2024-04-05T16:08:40.519Z,17.88
2024-04-05T16:11:08.692Z,17.77
2024-04-05T16:13:36.655Z,17.65
2024-04-05T16:16:06.782Z,17.53
2024-04-05T16:18:40.203Z,17.44
2024-04-05T16:21:14.031Z,17.35
2024-04-05T16:23:44.445Z,17.29
2024-04-05T16:26:14.636Z,17.23
2024-04-05T16:28:44.620Z,17.17
2024-04-05T16:31:17.175Z,17.10
2024-04-05T16:33:46.504Z,17.03
2024-04-05T16:36:14.766Z,16.96
2024-04-05T16:38:42.849Z,16.89
2024-04-05T16:41:13.931Z,16.80
2024-04-05T16:43:42.572Z,16.71
2024-04-05T16:46:13.039Z,16.61
2024-04-05T16:48:46.102Z,16.50
2024-04-05T16:51:19.388Z,16.37
2024-04-05T16:53:54.220Z,16.25
2024-04-05T16:56:23.715Z,16.12
2024-04-05T16:58:51.698Z,15.99
2024-04-05T17:01:22.364Z,15.88
2024-04-05T17:03:51.224Z,15.76
2024-04-05T17:06:23.585Z,15.64
2024-04-05T17:08:52.773Z,15.53
2024-04-05T17:11:22.995Z,15.42
2024-04-05T17:13:55.774Z,15.30
2024-04-05T17:16:24.361Z,15.19
2024-04-05T17:18:52.430Z,15.08
2024-04-05T17:21:20.342Z,14.99
2024-04-05T17:23:49.693Z,14.90
2024-04-05T17:26:17.584Z,14.81
2024-04-05T17:28:46.169Z,14.71
2024-04-05T17:31:15.771Z,14.61
2024-04-05T17:33:44.087Z,14.52
2024-04-05T17:36:13.275Z,14.42
2024-04-05T17:38:41.555Z,14.32
2024-04-05T17:41:09.717Z,14.23
2024-04-05T17:43:37.950Z,14.14
2024-04-05T17:46:05.814Z,14.12
2024-04-05T17:48:33.796Z,14.52
2024-04-05T17:51:02.575Z,15.02
2024-04-05T17:53:30.858Z,15.39
2024-04-05T17:56:02.006Z,15.66
2024-04-05T17:58:30.580Z,15.86
2024-04-05T18:00:58.630Z,15.95
2024-04-05T18:03:26.849Z,15.60
2024-04-05T18:05:55.199Z,15.16
2024-04-05T18:08:23.272Z,14.83
2024-04-05T18:10:52.887Z,14.58
2024-04-05T18:13:20.762Z,14.37
2024-04-05T18:15:48.660Z,14.19
2024-04-05T18:18:16.682Z,14.03
2024-04-05T18:20:44.791Z,13.89
2024-04-05T18:23:13.088Z,13.82
2024-04-05T18:25:44.597Z,14.18
2024-04-05T18:28:12.759Z,14.67
2024-04-05T18:30:40.948Z,15.01
2024-04-05T18:33:09.818Z,15.27
2024-04-05T18:35:38.309Z,15.47
2024-04-05T18:38:07.825Z,15.63
2024-04-05T18:40:37.619Z,15.78
2024-04-05T18:43:05.582Z,15.84
2024-04-05T18:45:33.460Z,15.46
2024-04-05T18:48:05.008Z,15.01
2024-04-05T18:50:32.892Z,14.67
2024-04-05T18:53:04.821Z,14.40
2024-04-05T18:55:37.649Z,14.19
2024-04-05T18:58:17.247Z,14.02
2024-04-05T19:00:45.875Z,13.93
2024-04-05T19:03:15.843Z,14.31
2024-04-05T19:05:43.935Z,14.75
2024-04-05T19:08:13.609Z,15.07
2024-04-05T19:10:41.814Z,15.30
2024-04-05T19:13:19.403Z,15.47
2024-04-05T19:15:50.979Z,15.61
2024-04-05T19:18:19.032Z,15.73
2024-04-05T19:20:47.656Z,15.82
2024-04-05T19:23:15.607Z,15.82
2024-04-05T19:25:43.990Z,15.39
2024-04-05T19:28:12.987Z,14.91
2024-04-05T19:30:42.088Z,14.53
2024-04-05T19:33:17.094Z,14.22
2024-04-05T19:35:44.881Z,13.96
2024-04-05T19:38:14.734Z,13.83
2024-04-05T19:40:44.419Z,14.14
2024-04-05T19:43:12.251Z,14.55
2024-04-05T19:45:40.924Z,14.84
2024-04-05T19:48:08.913Z,15.04
2024-04-05T19:50:36.962Z,15.20
2024-04-05T19:53:04.925Z,15.33
2024-04-05T19:55:32.900Z,15.43
2024-04-05T19:58:04.070Z,15.51
2024-04-05T20:00:36.742Z,15.60
2024-04-05T20:03:05.413Z,15.64
2024-04-05T20:05:33.487Z,15.68
2024-04-05T20:08:01.371Z,15.71
2024-04-05T20:10:30.440Z,15.73
2024-04-05T20:12:58.303Z,15.66
2024-04-05T20:15:26.077Z,15.20
2024-04-05T20:17:53.940Z,14.67
2024-04-05T20:20:23.059Z,14.22
2024-04-05T20:22:51.612Z,13.88
2024-04-05T20:25:19.474Z,13.65
2024-04-05T20:27:47.689Z,13.90
2024-04-05T20:30:33.864Z,14.23
2024-04-05T20:33:03.154Z,14.48
2024-04-05T20:35:31.037Z,14.63
2024-04-05T20:37:59.006Z,14.73
2024-04-05T20:40:26.847Z,14.81
2024-04-05T20:42:54.724Z,14.87
2024-04-05T20:45:23.096Z,14.93
2024-04-05T20:47:50.957Z,14.99
2024-04-05T20:50:18.887Z,15.05
2024-04-05T20:52:46.792Z,15.09
2024-04-05T20:55:14.872Z,15.14
2024-04-05T20:57:42.729Z,15.19
2024-04-05T21:00:12.043Z,15.23
2024-04-05T21:02:39.935Z,15.27
2024-04-05T21:05:08.885Z,15.32
2024-04-05T21:07:36.880Z,15.36
2024-04-05T21:10:06.724Z,15.39
2024-04-05T21:12:34.538Z,15.43
2024-04-05T21:15:02.420Z,15.48
2024-04-05T21:17:30.385Z,15.52
2024-04-05T21:20:05.557Z,15.55
2024-04-05T21:22:35.521Z,15.58
2024-04-05T21:25:04.219Z,15.59
2024-04-05T21:27:31.976Z,15.59
2024-04-05T21:30:00.590Z,15.60
2024-04-05T21:32:28.818Z,15.59
2024-04-05T21:34:56.804Z,15.59
2024-04-05T21:37:24.570Z,15.61
2024-04-05T21:39:53.609Z,15.61
2024-04-05T21:42:21.442Z,15.61
2024-04-05T21:44:49.193Z,15.63
2024-04-05T21:47:17.075Z,15.65
2024-04-05T21:52:17.110Z,15.67
2024-04-05T21:54:44.861Z,15.72
2024-04-05T21:57:12.719Z,15.74
2024-04-05T21:59:40.586Z,15.78
2024-04-05T22:02:10.227Z,15.81
2024-04-05T22:04:38.490Z,15.84
2024-04-05T22:07:06.456Z,15.88
2024-04-05T22:09:34.622Z,15.81
2024-04-05T22:12:04.395Z,15.34
2024-04-05T22:14:32.511Z,14.83
2024-04-05T22:17:00.469Z,14.39
2024-04-05T22:19:28.370Z,14.13
2024-04-05T22:21:56.214Z,14.34
2024-04-05T22:24:24.066Z,14.66
2024-04-05T22:26:52.234Z,14.89
2024-04-05T22:29:20.515Z,15.06
2024-04-05T22:31:48.504Z,15.18
2024-04-05T22:34:16.351Z,15.27
2024-04-05T22:36:44.180Z,15.37
2024-04-05T22:39:12.018Z,15.43
2024-04-05T22:41:39.968Z,15.51
2024-04-05T22:44:07.810Z,15.58
2024-04-05T22:46:35.690Z,15.64
2024-04-05T22:49:03.682Z,15.70
2024-04-05T22:51:31.716Z,15.76
2024-04-05T22:53:59.687Z,15.82
2024-04-05T22:56:27.586Z,15.88
2024-04-05T22:58:55.424Z,15.94
2024-04-05T23:01:23.396Z,16.00
2024-04-05T23:03:51.187Z,16.00
2024-04-05T23:06:23.955Z,15.58
2024-04-05T23:08:52.315Z,15.07
2024-04-05T23:11:20.083Z,14.69
2024-04-05T23:13:49.184Z,14.37
2024-04-05T23:16:17.339Z,14.21
2024-04-05T23:18:45.268Z,14.55
2024-04-05T23:21:13.214Z,14.90
2024-04-05T23:23:40.990Z,15.13
2024-04-05T23:26:09.635Z,15.27
2024-04-05T23:28:37.913Z,15.39
2024-04-05T23:31:06.498Z,15.49
2024-04-05T23:33:34.458Z,15.57
2024-04-05T23:36:02.426Z,15.65
2024-04-05T23:38:30.495Z,15.71
2024-04-05T23:40:58.481Z,15.77
2024-04-05T23:43:26.336Z,15.81
2024-04-05T23:45:54.508Z,15.86
2024-04-05T23:48:23.437Z,15.92
2024-04-05T23:50:51.574Z,15.98
2024-04-05T23:53:19.987Z,16.04
2024-04-05T23:55:47.911Z,16.10
2024-04-05T23:58:15.702Z,16.16
